sensor_id;sensor_type;location;lat;lon;timestamp;temperature;humidity
18597;DHT22;9428;50.950;6.912;2022-12-29T00:01:53;10.60;99.90
18597;DHT22;9428;50.950;6.912;2022-12-29T00:04:41;10.50;99.90
18597;DHT22;9428;50.950;6.912;2022-12-29T00:07:30;10.60;99.90
18597;DHT22;9428;50.950;6.912;2022-12-29T00:10:17;11.00;99.90
18597;DHT22;9428;50.950;6.912;2022-12-29T00:13:05;10.60;99.90
18597;DHT22;9428;50.950;6.912;2022-12-29T00:16:09;10.50;99.90
18597;DHT22;9428;50.950;6.912;2022-12-29T00:18:57;10.60;99.90
18597;DHT22;9428;50.950;6.912;2022-12-29T00:21:44;10.50;99.90
18597;DHT22;9428;50.950;6.912;2022-12-29T00:24:50;10.50;99.90
18597;DHT22;9428;50.950;6.912;2022-12-29T00:27:55;10.60;99.90
18597;DHT22;9428;50.950;6.912;2022-12-29T00:31:00;10.60;99.90
18597;DHT22;9428;50.950;6.912;2022-12-29T00:34:09;10.60;99.90
18597;DHT22;9428;50.950;6.912;2022-12-29T00:37:15;10.60;99.90
18597;DHT22;9428;50.950;6.912;2022-12-29T00:40:04;10.60;99.90
18597;DHT22;9428;50.950;6.912;2022-12-29T00:43:09;10.70;99.90
18597;DHT22;9428;50.950;6.912;2022-12-29T00:46:14;11.40;99.90
18597;DHT22;9428;50.950;6.912;2022-12-29T00:49:04;10.70;99.90
18597;DHT22;9428;50.950;6.912;2022-12-29T00:52:10;11.90;99.90
18597;DHT22;9428;50.950;6.912;2022-12-29T00:54:58;11.10;99.90
18597;DHT22;9428;50.950;6.912;2022-12-29T00:57:46;11.90;99.90
18597;DHT22;9428;50.950;6.912;2022-12-29T01:00:34;11.00;99.90
18597;DHT22;9428;50.950;6.912;2022-12-29T01:03:21;11.00;99.90
18597;DHT22;9428;50.950;6.912;2022-12-29T01:06:10;11.10;99.90
18597;DHT22;9428;50.950;6.912;2022-12-29T01:08:57;11.00;99.90
18597;DHT22;9428;50.950;6.912;2022-12-29T01:12:03;11.50;99.90
18597;DHT22;9428;50.950;6.912;2022-12-29T01:14:51;11.20;99.90
18597;DHT22;9428;50.950;6.912;2022-12-29T01:17:39;11.60;99.90
18597;DHT22;9428;50.950;6.912;2022-12-29T01:20:26;10.10;99.90
18597;DHT22;9428;50.950;6.912;2022-12-29T01:23:14;11.30;99.90
18597;DHT22;9428;50.950;6.912;2022-12-29T01:26:08;10.80;99.90
18597;DHT22;9428;50.950;6.912;2022-12-29T01:28:56;11.30;99.90
18597;DHT22;9428;50.950;6.912;2022-12-29T01:31:45;11.40;99.90
18597;DHT22;9428;50.950;6.912;2022-12-29T01:34:32;11.40;99.90
18597;DHT22;9428;50.950;6.912;2022-12-29T01:37:20;11.50;99.90
18597;DHT22;9428;50.950;6.912;2022-12-29T01:40:09;12.00;99.90
18597;DHT22;9428;50.950;6.912;2022-12-29T01:42:57;11.40;99.90
18597;DHT22;9428;50.950;6.912;2022-12-29T01:45:49;11.50;99.90
18597;DHT22;9428;50.950;6.912;2022-12-29T01:48:39;11.70;99.90
18597;DHT22;9428;50.950;6.912;2022-12-29T01:51:29;11.80;99.90
18597;DHT22;9428;50.950;6.912;2022-12-29T01:54:24;11.80;99.90
18597;DHT22;9428;50.950;6.912;2022-12-29T01:57:16;11.70;99.90
18597;DHT22;9428;50.950;6.912;2022-12-29T02:00:09;12.20;99.90
18597;DHT22;9428;50.950;6.912;2022-12-29T02:02:57;11.70;99.90
18597;DHT22;9428;50.950;6.912;2022-12-29T02:05:51;11.70;99.90
18597;DHT22;9428;50.950;6.912;2022-12-29T02:08:41;11.70;99.90
18597;DHT22;9428;50.950;6.912;2022-12-29T02:11:29;12.10;99.90
18597;DHT22;9428;50.950;6.912;2022-12-29T02:14:16;11.50;99.90
18597;DHT22;9428;50.950;6.912;2022-12-29T02:17:10;11.80;99.90
18597;DHT22;9428;50.950;6.912;2022-12-29T02:20:33;12.20;99.90
18597;DHT22;9428;50.950;6.912;2022-12-29T02:23:39;11.60;99.90
18597;DHT22;9428;50.950;6.912;2022-12-29T02:26:46;11.60;99.90
18597;DHT22;9428;50.950;6.912;2022-12-29T02:29:50;11.60;99.90
18597;DHT22;9428;50.950;6.912;2022-12-29T02:32:54;11.70;99.90
18597;DHT22;9428;50.950;6.912;2022-12-29T02:35:50;11.70;99.90
18597;DHT22;9428;50.950;6.912;2022-12-29T02:38:52;11.50;99.90
18597;DHT22;9428;50.950;6.912;2022-12-29T02:41:52;11.50;99.90
18597;DHT22;9428;50.950;6.912;2022-12-29T02:44:50;11.60;99.90
18597;DHT22;9428;50.950;6.912;2022-12-29T02:47:41;11.50;99.90
18597;DHT22;9428;50.950;6.912;2022-12-29T02:50:37;11.90;99.90
18597;DHT22;9428;50.950;6.912;2022-12-29T02:53:26;11.60;99.90
18597;DHT22;9428;50.950;6.912;2022-12-29T02:56:32;11.50;99.90
18597;DHT22;9428;50.950;6.912;2022-12-29T02:59:20;11.60;99.90
18597;DHT22;9428;50.950;6.912;2022-12-29T03:02:22;11.50;99.90
18597;DHT22;9428;50.950;6.912;2022-12-29T03:05:30;11.60;99.90
18597;DHT22;9428;50.950;6.912;2022-12-29T03:08:26;12.00;99.90
18597;DHT22;9428;50.950;6.912;2022-12-29T03:11:15;11.50;99.90
18597;DHT22;9428;50.950;6.912;2022-12-29T03:14:27;11.50;99.90
18597;DHT22;9428;50.950;6.912;2022-12-29T03:17:40;11.60;99.90
18597;DHT22;9428;50.950;6.912;2022-12-29T03:20:34;12.00;99.90
18597;DHT22;9428;50.950;6.912;2022-12-29T03:23:27;11.50;99.90
18597;DHT22;9428;50.950;6.912;2022-12-29T03:26:17;11.50;99.90
18597;DHT22;9428;50.950;6.912;2022-12-29T03:29:07;11.50;99.90
18597;DHT22;9428;50.950;6.912;2022-12-29T03:31:55;11.50;99.90
18597;DHT22;9428;50.950;6.912;2022-12-29T03:34:43;12.00;99.90
18597;DHT22;9428;50.950;6.912;2022-12-29T03:37:34;11.50;99.90
18597;DHT22;9428;50.950;6.912;2022-12-29T03:40:25;11.50;99.90
18597;DHT22;9428;50.950;6.912;2022-12-29T03:43:13;11.50;99.90
18597;DHT22;9428;50.950;6.912;2022-12-29T03:46:01;11.60;99.90
18597;DHT22;9428;50.950;6.912;2022-12-29T03:48:48;11.50;99.90
18597;DHT22;9428;50.950;6.912;2022-12-29T03:51:35;11.60;99.90
18597;DHT22;9428;50.950;6.912;2022-12-29T03:54:23;11.50;99.90
18597;DHT22;9428;50.950;6.912;2022-12-29T03:57:11;11.50;99.90
18597;DHT22;9428;50.950;6.912;2022-12-29T03:59:58;11.50;99.90
18597;DHT22;9428;50.950;6.912;2022-12-29T04:02:46;11.50;99.90
18597;DHT22;9428;50.950;6.912;2022-12-29T04:05:33;11.50;99.90
18597;DHT22;9428;50.950;6.912;2022-12-29T04:08:20;11.50;99.90
18597;DHT22;9428;50.950;6.912;2022-12-29T04:11:08;11.40;99.90
18597;DHT22;9428;50.950;6.912;2022-12-29T04:13:56;11.50;99.90
18597;DHT22;9428;50.950;6.912;2022-12-29T04:16:43;11.50;99.90
18597;DHT22;9428;50.950;6.912;2022-12-29T04:19:31;11.40;99.90
18597;DHT22;9428;50.950;6.912;2022-12-29T04:22:18;12.10;99.90
18597;DHT22;9428;50.950;6.912;2022-12-29T04:25:06;11.70;99.90
18597;DHT22;9428;50.950;6.912;2022-12-29T04:27:53;11.50;99.90
18597;DHT22;9428;50.950;6.912;2022-12-29T04:30:42;11.30;99.90
18597;DHT22;9428;50.950;6.912;2022-12-29T04:33:30;11.30;99.90
18597;DHT22;9428;50.950;6.912;2022-12-29T04:36:17;11.40;99.90
18597;DHT22;9428;50.950;6.912;2022-12-29T04:39:04;11.40;99.90
18597;DHT22;9428;50.950;6.912;2022-12-29T04:41:52;11.30;99.90
18597;DHT22;9428;50.950;6.912;2022-12-29T04:44:39;11.70;99.90
18597;DHT22;9428;50.950;6.912;2022-12-29T04:47:27;11.50;99.90
18597;DHT22;9428;50.950;6.912;2022-12-29T04:50:14;12.00;99.90
18597;DHT22;9428;50.950;6.912;2022-12-29T04:53:02;11.50;99.90
18597;DHT22;9428;50.950;6.912;2022-12-29T04:55:50;11.50;99.90
18597;DHT22;9428;50.950;6.912;2022-12-29T04:58:38;11.40;99.90
18597;DHT22;9428;50.950;6.912;2022-12-29T05:01:25;11.40;99.90
18597;DHT22;9428;50.950;6.912;2022-12-29T05:04:13;12.10;99.90
18597;DHT22;9428;50.950;6.912;2022-12-29T05:07:00;11.50;99.90
18597;DHT22;9428;50.950;6.912;2022-12-29T05:09:48;11.50;99.90
18597;DHT22;9428;50.950;6.912;2022-12-29T05:12:36;11.60;99.90
18597;DHT22;9428;50.950;6.912;2022-12-29T05:15:24;11.90;99.90
18597;DHT22;9428;50.950;6.912;2022-12-29T05:18:11;11.50;99.90
18597;DHT22;9428;50.950;6.912;2022-12-29T05:21:00;11.40;99.90
18597;DHT22;9428;50.950;6.912;2022-12-29T05:23:47;12.10;99.90
18597;DHT22;9428;50.950;6.912;2022-12-29T05:26:34;11.70;99.90
18597;DHT22;9428;50.950;6.912;2022-12-29T05:29:21;11.80;99.90
18597;DHT22;9428;50.950;6.912;2022-12-29T05:32:09;11.80;99.90
18597;DHT22;9428;50.950;6.912;2022-12-29T05:34:56;12.00;99.90
18597;DHT22;9428;50.950;6.912;2022-12-29T05:37:44;11.70;99.90
18597;DHT22;9428;50.950;6.912;2022-12-29T05:40:31;11.60;99.90
18597;DHT22;9428;50.950;6.912;2022-12-29T05:43:19;11.60;99.90
18597;DHT22;9428;50.950;6.912;2022-12-29T05:46:06;11.50;99.90
18597;DHT22;9428;50.950;6.912;2022-12-29T05:48:53;11.50;99.90
18597;DHT22;9428;50.950;6.912;2022-12-29T05:51:40;11.50;99.90
18597;DHT22;9428;50.950;6.912;2022-12-29T05:54:29;11.40;99.90
18597;DHT22;9428;50.950;6.912;2022-12-29T05:57:16;11.40;99.90
18597;DHT22;9428;50.950;6.912;2022-12-29T06:00:04;11.50;99.90
18597;DHT22;9428;50.950;6.912;2022-12-29T06:02:51;11.50;99.90
18597;DHT22;9428;50.950;6.912;2022-12-29T06:05:38;11.50;99.90
18597;DHT22;9428;50.950;6.912;2022-12-29T06:08:25;11.50;99.90
18597;DHT22;9428;50.950;6.912;2022-12-29T06:11:14;11.50;99.90
18597;DHT22;9428;50.950;6.912;2022-12-29T06:14:01;11.60;99.90
18597;DHT22;9428;50.950;6.912;2022-12-29T06:16:48;11.60;99.90
18597;DHT22;9428;50.950;6.912;2022-12-29T06:19:36;11.70;99.90
18597;DHT22;9428;50.950;6.912;2022-12-29T06:22:23;12.00;99.90
18597;DHT22;9428;50.950;6.912;2022-12-29T06:25:10;11.50;99.90
18597;DHT22;9428;50.950;6.912;2022-12-29T06:27:59;11.60;99.90
18597;DHT22;9428;50.950;6.912;2022-12-29T06:30:46;12.10;99.90
18597;DHT22;9428;50.950;6.912;2022-12-29T06:33:34;11.50;99.90
18597;DHT22;9428;50.950;6.912;2022-12-29T06:36:21;11.50;99.90
18597;DHT22;9428;50.950;6.912;2022-12-29T06:39:09;11.60;99.90
18597;DHT22;9428;50.950;6.912;2022-12-29T06:41:56;11.50;99.90
18597;DHT22;9428;50.950;6.912;2022-12-29T06:44:45;12.10;99.90
18597;DHT22;9428;50.950;6.912;2022-12-29T06:47:32;11.50;99.90
18597;DHT22;9428;50.950;6.912;2022-12-29T06:50:19;11.60;99.90
18597;DHT22;9428;50.950;6.912;2022-12-29T06:53:07;11.70;99.90
18597;DHT22;9428;50.950;6.912;2022-12-29T06:55:54;11.60;99.90
18597;DHT22;9428;50.950;6.912;2022-12-29T06:58:42;11.60;99.90
18597;DHT22;9428;50.950;6.912;2022-12-29T07:01:31;11.60;99.90
18597;DHT22;9428;50.950;6.912;2022-12-29T07:04:18;11.60;99.90
18597;DHT22;9428;50.950;6.912;2022-12-29T07:07:05;11.60;99.90
18597;DHT22;9428;50.950;6.912;2022-12-29T07:09:52;12.10;99.90
18597;DHT22;9428;50.950;6.912;2022-12-29T07:12:39;12.40;99.90
18597;DHT22;9428;50.950;6.912;2022-12-29T07:15:27;11.60;99.90
18597;DHT22;9428;50.950;6.912;2022-12-29T07:18:15;12.00;99.90
18597;DHT22;9428;50.950;6.912;2022-12-29T07:21:03;11.50;99.90
18597;DHT22;9428;50.950;6.912;2022-12-29T07:23:50;11.60;99.90
18597;DHT22;9428;50.950;6.912;2022-12-29T07:26:37;11.60;99.90
18597;DHT22;9428;50.950;6.912;2022-12-29T07:29:24;11.80;99.90
18597;DHT22;9428;50.950;6.912;2022-12-29T07:32:11;11.70;99.90
18597;DHT22;9428;50.950;6.912;2022-12-29T07:35:00;11.70;99.90
18597;DHT22;9428;50.950;6.912;2022-12-29T07:37:47;11.80;99.90
18597;DHT22;9428;50.950;6.912;2022-12-29T07:40:35;11.70;99.90
18597;DHT22;9428;50.950;6.912;2022-12-29T07:43:22;11.70;99.90
18597;DHT22;9428;50.950;6.912;2022-12-29T07:46:09;11.70;99.90
18597;DHT22;9428;50.950;6.912;2022-12-29T07:48:56;11.60;99.90
18597;DHT22;9428;50.950;6.912;2022-12-29T07:51:45;11.60;99.90
18597;DHT22;9428;50.950;6.912;2022-12-29T07:54:32;11.50;99.90
18597;DHT22;9428;50.950;6.912;2022-12-29T07:57:19;11.60;99.90
18597;DHT22;9428;50.950;6.912;2022-12-29T08:00:08;11.60;99.90
18597;DHT22;9428;50.950;6.912;2022-12-29T08:02:56;11.60;99.90
18597;DHT22;9428;50.950;6.912;2022-12-29T08:05:43;11.90;99.90
18597;DHT22;9428;50.950;6.912;2022-12-29T08:08:32;11.50;99.90
18597;DHT22;9428;50.950;6.912;2022-12-29T08:11:19;11.70;99.90
18597;DHT22;9428;50.950;6.912;2022-12-29T08:14:07;12.40;99.90
18597;DHT22;9428;50.950;6.912;2022-12-29T08:16:54;11.60;99.90
18597;DHT22;9428;50.950;6.912;2022-12-29T08:19:41;11.70;99.90
18597;DHT22;9428;50.950;6.912;2022-12-29T08:22:29;11.70;99.90
18597;DHT22;9428;50.950;6.912;2022-12-29T08:25:17;11.70;99.90
18597;DHT22;9428;50.950;6.912;2022-12-29T08:28:05;11.80;99.90
18597;DHT22;9428;50.950;6.912;2022-12-29T08:30:53;11.90;99.90
18597;DHT22;9428;50.950;6.912;2022-12-29T08:33:40;11.60;99.90
18597;DHT22;9428;50.950;6.912;2022-12-29T08:36:27;11.90;99.90
18597;DHT22;9428;50.950;6.912;2022-12-29T08:39:15;11.70;99.90
18597;DHT22;9428;50.950;6.912;2022-12-29T08:42:04;11.60;99.90
18597;DHT22;9428;50.950;6.912;2022-12-29T08:44:52;11.60;99.90
18597;DHT22;9428;50.950;6.912;2022-12-29T08:47:39;11.60;99.90
18597;DHT22;9428;50.950;6.912;2022-12-29T08:50:26;11.60;99.90
18597;DHT22;9428;50.950;6.912;2022-12-29T08:53:13;11.70;99.90
18597;DHT22;9428;50.950;6.912;2022-12-29T08:56:01;11.60;99.90
18597;DHT22;9428;50.950;6.912;2022-12-29T08:58:50;11.50;99.90
18597;DHT22;9428;50.950;6.912;2022-12-29T09:01:38;12.10;99.90
18597;DHT22;9428;50.950;6.912;2022-12-29T09:04:26;11.60;99.90
18597;DHT22;9428;50.950;6.912;2022-12-29T09:07:13;11.50;99.90
18597;DHT22;9428;50.950;6.912;2022-12-29T09:10:01;11.40;99.90
18597;DHT22;9428;50.950;6.912;2022-12-29T09:12:48;11.50;99.90
18597;DHT22;9428;50.950;6.912;2022-12-29T09:15:36;11.50;99.90
18597;DHT22;9428;50.950;6.912;2022-12-29T09:18:24;11.40;99.90
18597;DHT22;9428;50.950;6.912;2022-12-29T09:21:11;11.50;99.90
18597;DHT22;9428;50.950;6.912;2022-12-29T09:23:59;11.90;99.90
18597;DHT22;9428;50.950;6.912;2022-12-29T09:26:46;11.60;99.90
18597;DHT22;9428;50.950;6.912;2022-12-29T09:29:33;11.70;99.90
18597;DHT22;9428;50.950;6.912;2022-12-29T09:32:22;11.70;99.90
18597;DHT22;9428;50.950;6.912;2022-12-29T09:35:09;11.80;99.90
18597;DHT22;9428;50.950;6.912;2022-12-29T09:37:57;12.10;99.90
18597;DHT22;9428;50.950;6.912;2022-12-29T09:40:47;12.00;99.90
18597;DHT22;9428;50.950;6.912;2022-12-29T09:43:54;11.70;99.90
18597;DHT22;9428;50.950;6.912;2022-12-29T09:46:47;11.60;99.90
18597;DHT22;9428;50.950;6.912;2022-12-29T09:49:42;12.30;99.90
18597;DHT22;9428;50.950;6.912;2022-12-29T09:52:34;11.70;99.90
18597;DHT22;9428;50.950;6.912;2022-12-29T09:55:25;11.60;99.90
18597;DHT22;9428;50.950;6.912;2022-12-29T09:58:19;11.60;99.90
18597;DHT22;9428;50.950;6.912;2022-12-29T10:01:17;12.10;99.90
18597;DHT22;9428;50.950;6.912;2022-12-29T10:04:07;11.60;99.90
18597;DHT22;9428;50.950;6.912;2022-12-29T10:06:59;11.70;99.90
18597;DHT22;9428;50.950;6.912;2022-12-29T10:09:55;11.70;99.90
18597;DHT22;9428;50.950;6.912;2022-12-29T10:13:01;11.80;99.90
18597;DHT22;9428;50.950;6.912;2022-12-29T10:15:59;11.80;99.90
18597;DHT22;9428;50.950;6.912;2022-12-29T10:19:01;11.80;99.90
18597;DHT22;9428;50.950;6.912;2022-12-29T10:22:03;11.80;99.90
18597;DHT22;9428;50.950;6.912;2022-12-29T10:24:55;12.10;99.90
18597;DHT22;9428;50.950;6.912;2022-12-29T10:27:43;12.20;99.90
18597;DHT22;9428;50.950;6.912;2022-12-29T10:30:33;11.80;99.90
18597;DHT22;9428;50.950;6.912;2022-12-29T10:33:22;11.90;99.90
18597;DHT22;9428;50.950;6.912;2022-12-29T10:36:15;11.80;99.90
18597;DHT22;9428;50.950;6.912;2022-12-29T10:39:13;12.60;99.90
18597;DHT22;9428;50.950;6.912;2022-12-29T10:42:07;12.00;99.90
18597;DHT22;9428;50.950;6.912;2022-12-29T10:44:58;12.00;99.90
18597;DHT22;9428;50.950;6.912;2022-12-29T10:47:52;12.10;99.90
18597;DHT22;9428;50.950;6.912;2022-12-29T10:50:40;12.10;99.90
18597;DHT22;9428;50.950;6.912;2022-12-29T10:53:34;11.20;99.90
18597;DHT22;9428;50.950;6.912;2022-12-29T10:56:31;12.10;99.90
18597;DHT22;9428;50.950;6.912;2022-12-29T10:59:22;12.00;99.90
18597;DHT22;9428;50.950;6.912;2022-12-29T11:02:24;12.60;99.90
18597;DHT22;9428;50.950;6.912;2022-12-29T11:05:18;12.50;99.90
18597;DHT22;9428;50.950;6.912;2022-12-29T11:08:10;12.10;99.90
18597;DHT22;9428;50.950;6.912;2022-12-29T11:10:59;12.40;99.90
18597;DHT22;9428;50.950;6.912;2022-12-29T11:13:51;12.20;99.90
18597;DHT22;9428;50.950;6.912;2022-12-29T11:16:42;11.70;99.90
18597;DHT22;9428;50.950;6.912;2022-12-29T11:19:32;12.10;99.90
18597;DHT22;9428;50.950;6.912;2022-12-29T11:22:22;12.30;99.90
18597;DHT22;9428;50.950;6.912;2022-12-29T11:25:12;12.20;99.90
18597;DHT22;9428;50.950;6.912;2022-12-29T11:28:02;12.10;99.90
18597;DHT22;9428;50.950;6.912;2022-12-29T11:30:59;12.10;99.90
18597;DHT22;9428;50.950;6.912;2022-12-29T11:33:47;12.10;99.90
18597;DHT22;9428;50.950;6.912;2022-12-29T11:36:35;12.10;99.90
18597;DHT22;9428;50.950;6.912;2022-12-29T11:39:39;12.10;99.90
18597;DHT22;9428;50.950;6.912;2022-12-29T11:42:33;12.10;99.90
18597;DHT22;9428;50.950;6.912;2022-12-29T11:45:23;12.20;99.90
18597;DHT22;9428;50.950;6.912;2022-12-29T11:48:16;12.20;99.90
18597;DHT22;9428;50.950;6.912;2022-12-29T11:51:07;12.20;99.90
18597;DHT22;9428;50.950;6.912;2022-12-29T11:53:56;13.10;99.90
18597;DHT22;9428;50.950;6.912;2022-12-29T11:56:44;12.20;99.90
18597;DHT22;9428;50.950;6.912;2022-12-29T11:59:39;12.30;99.90
18597;DHT22;9428;50.950;6.912;2022-12-29T12:02:44;12.30;99.90
18597;DHT22;9428;50.950;6.912;2022-12-29T12:05:38;12.20;99.90
18597;DHT22;9428;50.950;6.912;2022-12-29T12:08:33;12.30;99.90
18597;DHT22;9428;50.950;6.912;2022-12-29T12:11:26;12.30;99.90
18597;DHT22;9428;50.950;6.912;2022-12-29T12:14:25;12.20;99.90
18597;DHT22;9428;50.950;6.912;2022-12-29T12:17:19;12.30;99.90
18597;DHT22;9428;50.950;6.912;2022-12-29T12:20:16;12.60;99.90
18597;DHT22;9428;50.950;6.912;2022-12-29T12:23:19;12.20;99.90
18597;DHT22;9428;50.950;6.912;2022-12-29T12:26:12;12.30;99.90
18597;DHT22;9428;50.950;6.912;2022-12-29T12:29:04;12.20;99.90
18597;DHT22;9428;50.950;6.912;2022-12-29T12:31:56;12.20;99.90
18597;DHT22;9428;50.950;6.912;2022-12-29T12:34:45;12.10;99.90
18597;DHT22;9428;50.950;6.912;2022-12-29T12:37:52;12.30;99.90
18597;DHT22;9428;50.950;6.912;2022-12-29T12:41:09;12.20;99.90
18597;DHT22;9428;50.950;6.912;2022-12-29T12:44:01;12.20;99.90
18597;DHT22;9428;50.950;6.912;2022-12-29T12:47:05;12.20;99.90
18597;DHT22;9428;50.950;6.912;2022-12-29T12:50:28;12.20;99.90
18597;DHT22;9428;50.950;6.912;2022-12-29T12:53:45;12.10;99.90
18597;DHT22;9428;50.950;6.912;2022-12-29T12:56:58;12.10;99.90
18597;DHT22;9428;50.950;6.912;2022-12-29T12:59:56;12.00;99.90
18597;DHT22;9428;50.950;6.912;2022-12-29T13:02:55;12.00;99.90
18597;DHT22;9428;50.950;6.912;2022-12-29T13:06:09;12.00;99.90
18597;DHT22;9428;50.950;6.912;2022-12-29T13:09:10;12.00;99.90
18597;DHT22;9428;50.950;6.912;2022-12-29T13:12:13;12.00;99.90
18597;DHT22;9428;50.950;6.912;2022-12-29T13:15:19;12.30;99.90
18597;DHT22;9428;50.950;6.912;2022-12-29T13:18:17;11.90;99.90
18597;DHT22;9428;50.950;6.912;2022-12-29T13:21:16;11.90;99.90
18597;DHT22;9428;50.950;6.912;2022-12-29T13:24:15;12.10;99.90
18597;DHT22;9428;50.950;6.912;2022-12-29T13:27:12;11.90;99.90
18597;DHT22;9428;50.950;6.912;2022-12-29T13:30:05;11.90;99.90
18597;DHT22;9428;50.950;6.912;2022-12-29T13:33:01;11.90;99.90
18597;DHT22;9428;50.950;6.912;2022-12-29T13:35:59;11.90;99.90
18597;DHT22;9428;50.950;6.912;2022-12-29T13:38:50;11.90;99.90
18597;DHT22;9428;50.950;6.912;2022-12-29T13:41:41;11.80;99.90
18597;DHT22;9428;50.950;6.912;2022-12-29T13:44:34;12.40;99.90
18597;DHT22;9428;50.950;6.912;2022-12-29T13:47:26;11.80;99.90
18597;DHT22;9428;50.950;6.912;2022-12-29T13:50:18;11.80;99.90
18597;DHT22;9428;50.950;6.912;2022-12-29T13:53:17;11.90;99.90
18597;DHT22;9428;50.950;6.912;2022-12-29T13:56:09;11.80;99.90
18597;DHT22;9428;50.950;6.912;2022-12-29T13:59:04;11.70;99.90
18597;DHT22;9428;50.950;6.912;2022-12-29T14:01:59;11.80;99.90
18597;DHT22;9428;50.950;6.912;2022-12-29T14:04:59;11.70;99.90
18597;DHT22;9428;50.950;6.912;2022-12-29T14:07:48;11.70;99.90
18597;DHT22;9428;50.950;6.912;2022-12-29T14:10:38;11.70;99.90
18597;DHT22;9428;50.950;6.912;2022-12-29T14:13:40;12.00;99.90
18597;DHT22;9428;50.950;6.912;2022-12-29T14:16:37;11.60;99.90
18597;DHT22;9428;50.950;6.912;2022-12-29T14:19:28;11.70;99.90
18597;DHT22;9428;50.950;6.912;2022-12-29T14:22:23;11.60;99.90
18597;DHT22;9428;50.950;6.912;2022-12-29T14:25:58;11.60;99.90
18597;DHT22;9428;50.950;6.912;2022-12-29T14:28:47;11.70;99.90
18597;DHT22;9428;50.950;6.912;2022-12-29T14:31:35;11.60;99.90
18597;DHT22;9428;50.950;6.912;2022-12-29T14:34:31;11.60;99.90
18597;DHT22;9428;50.950;6.912;2022-12-29T14:37:27;11.50;99.90
18597;DHT22;9428;50.950;6.912;2022-12-29T14:40:17;11.60;99.90
18597;DHT22;9428;50.950;6.912;2022-12-29T14:43:12;11.50;99.90
18597;DHT22;9428;50.950;6.912;2022-12-29T14:46:01;11.50;99.90
18597;DHT22;9428;50.950;6.912;2022-12-29T14:48:55;11.60;99.90
18597;DHT22;9428;50.950;6.912;2022-12-29T14:51:43;11.40;99.90
18597;DHT22;9428;50.950;6.912;2022-12-29T14:54:42;11.40;99.90
18597;DHT22;9428;50.950;6.912;2022-12-29T14:57:35;11.40;99.90
18597;DHT22;9428;50.950;6.912;2022-12-29T15:00:27;11.40;99.90
18597;DHT22;9428;50.950;6.912;2022-12-29T15:03:19;11.30;99.90
18597;DHT22;9428;50.950;6.912;2022-12-29T15:06:08;11.70;99.90
18597;DHT22;9428;50.950;6.912;2022-12-29T15:09:03;11.30;99.90
18597;DHT22;9428;50.950;6.912;2022-12-29T15:11:54;11.70;99.90
18597;DHT22;9428;50.950;6.912;2022-12-29T15:14:50;11.20;99.90
18597;DHT22;9428;50.950;6.912;2022-12-29T15:17:39;11.20;99.90
18597;DHT22;9428;50.950;6.912;2022-12-29T15:20:32;11.20;99.90
18597;DHT22;9428;50.950;6.912;2022-12-29T15:23:20;11.20;99.90
18597;DHT22;9428;50.950;6.912;2022-12-29T15:26:08;11.60;99.90
18597;DHT22;9428;50.950;6.912;2022-12-29T15:28:56;11.10;99.90
18597;DHT22;9428;50.950;6.912;2022-12-29T15:31:46;11.00;99.90
18597;DHT22;9428;50.950;6.912;2022-12-29T15:34:35;11.00;99.90
18597;DHT22;9428;50.950;6.912;2022-12-29T15:37:25;10.90;99.90
18597;DHT22;9428;50.950;6.912;2022-12-29T15:40:22;10.80;99.90
18597;DHT22;9428;50.950;6.912;2022-12-29T15:43:32;10.90;99.90
18597;DHT22;9428;50.950;6.912;2022-12-29T15:46:23;11.70;99.90
18597;DHT22;9428;50.950;6.912;2022-12-29T15:49:14;10.80;99.90
18597;DHT22;9428;50.950;6.912;2022-12-29T15:52:08;11.20;99.90
18597;DHT22;9428;50.950;6.912;2022-12-29T15:54:55;10.80;99.90
18597;DHT22;9428;50.950;6.912;2022-12-29T15:57:45;11.50;99.90
18597;DHT22;9428;50.950;6.912;2022-12-29T16:00:33;10.60;99.90
18597;DHT22;9428;50.950;6.912;2022-12-29T16:03:25;10.70;99.90
18597;DHT22;9428;50.950;6.912;2022-12-29T16:06:27;11.10;99.90
18597;DHT22;9428;50.950;6.912;2022-12-29T16:09:18;10.70;99.90
18597;DHT22;9428;50.950;6.912;2022-12-29T16:12:13;10.70;99.90
18597;DHT22;9428;50.950;6.912;2022-12-29T16:15:05;10.60;99.90
18597;DHT22;9428;50.950;6.912;2022-12-29T16:17:55;10.50;99.90
18597;DHT22;9428;50.950;6.912;2022-12-29T16:20:45;10.50;99.90
18597;DHT22;9428;50.950;6.912;2022-12-29T16:23:36;10.50;99.90
18597;DHT22;9428;50.950;6.912;2022-12-29T16:26:25;10.90;99.90
18597;DHT22;9428;50.950;6.912;2022-12-29T16:29:13;10.50;99.90
18597;DHT22;9428;50.950;6.912;2022-12-29T16:32:01;10.40;99.90
18597;DHT22;9428;50.950;6.912;2022-12-29T16:34:51;10.50;99.90
18597;DHT22;9428;50.950;6.912;2022-12-29T16:37:49;10.50;99.90
18597;DHT22;9428;50.950;6.912;2022-12-29T16:40:53;10.50;99.90
18597;DHT22;9428;50.950;6.912;2022-12-29T16:43:42;10.40;99.90
18597;DHT22;9428;50.950;6.912;2022-12-29T16:46:30;10.80;99.90
18597;DHT22;9428;50.950;6.912;2022-12-29T16:49:17;10.50;99.90
18597;DHT22;9428;50.950;6.912;2022-12-29T16:52:18;10.40;99.90
18597;DHT22;9428;50.950;6.912;2022-12-29T16:55:14;10.30;99.90
18597;DHT22;9428;50.950;6.912;2022-12-29T16:58:02;10.30;99.90
18597;DHT22;9428;50.950;6.912;2022-12-29T17:00:52;10.30;99.90
18597;DHT22;9428;50.950;6.912;2022-12-29T17:03:46;10.30;99.90
18597;DHT22;9428;50.950;6.912;2022-12-29T17:06:34;10.30;99.90
18597;DHT22;9428;50.950;6.912;2022-12-29T17:09:23;10.20;99.90
18597;DHT22;9428;50.950;6.912;2022-12-29T17:12:14;10.10;99.90
18597;DHT22;9428;50.950;6.912;2022-12-29T17:15:05;10.10;99.90
18597;DHT22;9428;50.950;6.912;2022-12-29T17:17:57;10.10;99.90
18597;DHT22;9428;50.950;6.912;2022-12-29T17:20:45;10.10;99.90
18597;DHT22;9428;50.950;6.912;2022-12-29T17:23:33;10.00;99.90
18597;DHT22;9428;50.950;6.912;2022-12-29T17:26:22;10.10;99.90
18597;DHT22;9428;50.950;6.912;2022-12-29T17:29:15;10.10;99.90
18597;DHT22;9428;50.950;6.912;2022-12-29T17:32:05;10.10;99.90
18597;DHT22;9428;50.950;6.912;2022-12-29T17:34:54;10.10;99.90
18597;DHT22;9428;50.950;6.912;2022-12-29T17:37:41;10.20;99.90
18597;DHT22;9428;50.950;6.912;2022-12-29T17:40:30;10.10;99.90
18597;DHT22;9428;50.950;6.912;2022-12-29T17:43:18;10.10;99.90
18597;DHT22;9428;50.950;6.912;2022-12-29T17:46:06;10.30;99.90
18597;DHT22;9428;50.950;6.912;2022-12-29T17:48:53;10.10;99.90
18597;DHT22;9428;50.950;6.912;2022-12-29T17:51:44;10.80;99.90
18597;DHT22;9428;50.950;6.912;2022-12-29T17:54:32;10.20;99.90
18597;DHT22;9428;50.950;6.912;2022-12-29T17:57:20;10.10;99.90
18597;DHT22;9428;50.950;6.912;2022-12-29T18:00:14;10.10;99.90
18597;DHT22;9428;50.950;6.912;2022-12-29T18:03:01;10.10;99.90
18597;DHT22;9428;50.950;6.912;2022-12-29T18:05:48;10.10;99.90
18597;DHT22;9428;50.950;6.912;2022-12-29T18:08:38;10.10;99.90
18597;DHT22;9428;50.950;6.912;2022-12-29T18:11:26;10.00;99.90
18597;DHT22;9428;50.950;6.912;2022-12-29T18:14:14;10.10;99.90
18597;DHT22;9428;50.950;6.912;2022-12-29T18:17:08;10.10;99.90
18597;DHT22;9428;50.950;6.912;2022-12-29T18:19:58;10.20;99.90
18597;DHT22;9428;50.950;6.912;2022-12-29T18:22:45;10.20;99.90